sensor_id;sensor_type;location;lat;lon;timestamp;temperature;humidity
2929;DHT22;1474;51.460;7.150;2023-09-19T14:40:19;20.90;59.90
2929;DHT22;1474;51.460;7.150;2023-09-19T14:52:00;20.60;59.20
2929;DHT22;1474;51.460;7.150;2023-09-19T14:55:03;20.70;59.40
2929;DHT22;1474;51.460;7.150;2023-09-19T14:57:32;20.60;59.30
2929;DHT22;1474;51.460;7.150;2023-09-19T15:00:04;20.60;59.60
2929;DHT22;1474;51.460;7.150;2023-09-19T15:02:35;20.50;59.60
2929;DHT22;1474;51.460;7.150;2023-09-19T15:05:01;20.50;60.20
2929;DHT22;1474;51.460;7.150;2023-09-19T15:07:32;20.50;59.90
2929;DHT22;1474;51.460;7.150;2023-09-19T15:09:58;20.50;60.40
2929;DHT22;1474;51.460;7.150;2023-09-19T15:12:26;20.40;59.80
2929;DHT22;1474;51.460;7.150;2023-09-19T15:14:55;20.30;59.80
2929;DHT22;1474;51.460;7.150;2023-09-19T15:17:25;20.30;60.30
2929;DHT22;1474;51.460;7.150;2023-09-19T15:19:52;20.30;61.30
2929;DHT22;1474;51.460;7.150;2023-09-19T15:22:22;20.30;60.90
2929;DHT22;1474;51.460;7.150;2023-09-19T15:24:50;20.20;61.20
2929;DHT22;1474;51.460;7.150;2023-09-19T15:27:18;20.10;61.00
2929;DHT22;1474;51.460;7.150;2023-09-19T15:29:48;20.10;61.10
2929;DHT22;1474;51.460;7.150;2023-09-19T15:32:16;20.10;61.20
2929;DHT22;1474;51.460;7.150;2023-09-19T15:34:44;20.10;60.80
2929;DHT22;1474;51.460;7.150;2023-09-19T15:37:15;20.00;60.80
2929;DHT22;1474;51.460;7.150;2023-09-19T15:39:42;20.00;61.10
2929;DHT22;1474;51.460;7.150;2023-09-19T15:42:25;20.00;61.30
2929;DHT22;1474;51.460;7.150;2023-09-19T15:45:02;20.10;60.90
2929;DHT22;1474;51.460;7.150;2023-09-19T15:47:48;20.10;60.80
2929;DHT22;1474;51.460;7.150;2023-09-19T15:50:15;20.10;60.80
2929;DHT22;1474;51.460;7.150;2023-09-19T15:52:44;20.10;61.20
2929;DHT22;1474;51.460;7.150;2023-09-19T15:55:26;20.10;61.50
2929;DHT22;1474;51.460;7.150;2023-09-19T15:57:55;20.10;60.60
2929;DHT22;1474;51.460;7.150;2023-09-19T16:00:30;20.10;61.00
2929;DHT22;1474;51.460;7.150;2023-09-19T16:03:10;20.10;61.10
2929;DHT22;1474;51.460;7.150;2023-09-19T16:05:42;20.10;61.50
2929;DHT22;1474;51.460;7.150;2023-09-19T16:08:13;20.00;61.90
2929;DHT22;1474;51.460;7.150;2023-09-19T16:10:42;20.00;61.30
2929;DHT22;1474;51.460;7.150;2023-09-19T16:13:09;20.00;61.30
2929;DHT22;1474;51.460;7.150;2023-09-19T16:15:42;20.00;60.70
2929;DHT22;1474;51.460;7.150;2023-09-19T16:18:21;20.00;61.30
2929;DHT22;1474;51.460;7.150;2023-09-19T16:21:07;19.90;61.20
2929;DHT22;1474;51.460;7.150;2023-09-19T16:23:36;19.80;61.70
2929;DHT22;1474;51.460;7.150;2023-09-19T16:26:15;19.80;62.20
2929;DHT22;1474;51.460;7.150;2023-09-19T16:28:50;19.80;61.90
2929;DHT22;1474;51.460;7.150;2023-09-19T16:31:25;19.70;62.60
2929;DHT22;1474;51.460;7.150;2023-09-19T16:34:05;19.70;62.50
2929;DHT22;1474;51.460;7.150;2023-09-19T16:36:47;19.70;62.40
2929;DHT22;1474;51.460;7.150;2023-09-19T16:39:19;19.70;62.40
2929;DHT22;1474;51.460;7.150;2023-09-19T16:41:46;19.70;62.50
2929;DHT22;1474;51.460;7.150;2023-09-19T16:44:12;19.70;62.60
2929;DHT22;1474;51.460;7.150;2023-09-19T16:46:39;19.60;62.50
2929;DHT22;1474;51.460;7.150;2023-09-19T16:49:09;19.60;63.10
2929;DHT22;1474;51.460;7.150;2023-09-19T16:51:35;19.60;62.60
2929;DHT22;1474;51.460;7.150;2023-09-19T16:54:03;19.50;63.00
2929;DHT22;1474;51.460;7.150;2023-09-19T16:56:30;19.50;62.80
2929;DHT22;1474;51.460;7.150;2023-09-19T16:58:58;19.50;63.10
2929;DHT22;1474;51.460;7.150;2023-09-19T17:01:27;19.50;63.00
2929;DHT22;1474;51.460;7.150;2023-09-19T17:03:54;19.50;63.20
2929;DHT22;1474;51.460;7.150;2023-09-19T17:06:34;19.40;63.50
2929;DHT22;1474;51.460;7.150;2023-09-19T17:09:05;19.40;63.50
2929;DHT22;1474;51.460;7.150;2023-09-19T17:11:39;19.40;63.20
2929;DHT22;1474;51.460;7.150;2023-09-19T17:14:10;19.40;63.30
2929;DHT22;1474;51.460;7.150;2023-09-19T17:16:38;19.40;63.80
2929;DHT22;1474;51.460;7.150;2023-09-19T17:19:11;19.30;63.90
2929;DHT22;1474;51.460;7.150;2023-09-19T17:21:50;19.30;63.90
2929;DHT22;1474;51.460;7.150;2023-09-19T17:24:23;19.30;64.10
2929;DHT22;1474;51.460;7.150;2023-09-19T17:26:50;19.40;64.20
2929;DHT22;1474;51.460;7.150;2023-09-19T17:29:20;19.40;64.30
2929;DHT22;1474;51.460;7.150;2023-09-19T17:31:52;19.30;63.90
2929;DHT22;1474;51.460;7.150;2023-09-19T17:34:24;19.30;64.20
2929;DHT22;1474;51.460;7.150;2023-09-19T17:36:50;19.30;64.00
2929;DHT22;1474;51.460;7.150;2023-09-19T17:39:16;19.20;64.20
2929;DHT22;1474;51.460;7.150;2023-09-19T17:41:46;19.20;64.50
2929;DHT22;1474;51.460;7.150;2023-09-19T17:44:21;19.20;64.40
2929;DHT22;1474;51.460;7.150;2023-09-19T17:46:52;19.20;64.30
2929;DHT22;1474;51.460;7.150;2023-09-19T17:49:23;19.20;64.20
2929;DHT22;1474;51.460;7.150;2023-09-19T17:51:49;19.20;64.30
2929;DHT22;1474;51.460;7.150;2023-09-19T17:54:23;19.20;64.30
2929;DHT22;1474;51.460;7.150;2023-09-19T17:56:55;19.20;64.50
2929;DHT22;1474;51.460;7.150;2023-09-19T17:59:25;19.30;64.60
2929;DHT22;1474;51.460;7.150;2023-09-19T18:01:53;19.20;64.30
2929;DHT22;1474;51.460;7.150;2023-09-19T18:04:25;19.20;64.30
2929;DHT22;1474;51.460;7.150;2023-09-19T18:06:56;19.20;64.40
2929;DHT22;1474;51.460;7.150;2023-09-19T18:09:23;19.20;64.90
2929;DHT22;1474;51.460;7.150;2023-09-19T18:11:50;19.20;64.50
2929;DHT22;1474;51.460;7.150;2023-09-19T18:14:21;19.20;64.20
2929;DHT22;1474;51.460;7.150;2023-09-19T18:16:50;19.20;64.30
2929;DHT22;1474;51.460;7.150;2023-09-19T18:19:25;19.10;64.40
2929;DHT22;1474;51.460;7.150;2023-09-19T18:21:52;19.10;64.70
2929;DHT22;1474;51.460;7.150;2023-09-19T18:24:19;19.20;65.00
2929;DHT22;1474;51.460;7.150;2023-09-19T18:26:54;19.20;64.60
2929;DHT22;1474;51.460;7.150;2023-09-19T18:29:22;19.20;64.30
2929;DHT22;1474;51.460;7.150;2023-09-19T18:31:49;19.10;64.30
2929;DHT22;1474;51.460;7.150;2023-09-19T18:34:17;19.10;64.50
2929;DHT22;1474;51.460;7.150;2023-09-19T18:36:46;19.10;64.70
2929;DHT22;1474;51.460;7.150;2023-09-19T18:39:29;19.10;64.20
2929;DHT22;1474;51.460;7.150;2023-09-19T18:41:59;19.00;64.70
2929;DHT22;1474;51.460;7.150;2023-09-19T18:44:26;19.10;64.70
2929;DHT22;1474;51.460;7.150;2023-09-19T18:47:10;19.10;64.60
2929;DHT22;1474;51.460;7.150;2023-09-19T18:49:40;19.00;64.10
2929;DHT22;1474;51.460;7.150;2023-09-19T18:52:10;19.00;64.40
2929;DHT22;1474;51.460;7.150;2023-09-19T18:54:39;19.00;64.10
2929;DHT22;1474;51.460;7.150;2023-09-19T18:57:08;19.00;64.60
2929;DHT22;1474;51.460;7.150;2023-09-19T18:59:37;19.00;64.70
2929;DHT22;1474;51.460;7.150;2023-09-19T19:02:07;19.00;64.90
2929;DHT22;1474;51.460;7.150;2023-09-19T19:04:36;18.90;64.40
2929;DHT22;1474;51.460;7.150;2023-09-19T19:07:08;19.00;64.30
2929;DHT22;1474;51.460;7.150;2023-09-19T19:09:51;18.90;64.10
2929;DHT22;1474;51.460;7.150;2023-09-19T19:12:22;18.90;64.90
2929;DHT22;1474;51.460;7.150;2023-09-19T19:14:51;18.80;64.90
2929;DHT22;1474;51.460;7.150;2023-09-19T19:17:23;18.90;65.20
2929;DHT22;1474;51.460;7.150;2023-09-19T19:19:53;18.80;64.90
2929;DHT22;1474;51.460;7.150;2023-09-19T19:22:36;18.70;65.40
2929;DHT22;1474;51.460;7.150;2023-09-19T19:25:07;18.70;64.80
2929;DHT22;1474;51.460;7.150;2023-09-19T19:27:35;18.80;65.30
2929;DHT22;1474;51.460;7.150;2023-09-19T19:30:04;18.80;65.20
2929;DHT22;1474;51.460;7.150;2023-09-19T19:32:32;18.70;65.20
2929;DHT22;1474;51.460;7.150;2023-09-19T19:35:02;18.70;65.80
2929;DHT22;1474;51.460;7.150;2023-09-19T19:37:36;18.70;65.10
2929;DHT22;1474;51.460;7.150;2023-09-19T19:40:04;18.80;65.50
2929;DHT22;1474;51.460;7.150;2023-09-19T19:42:38;18.80;65.20
2929;DHT22;1474;51.460;7.150;2023-09-19T19:45:09;18.70;65.40
2929;DHT22;1474;51.460;7.150;2023-09-19T19:47:43;18.70;65.20
2929;DHT22;1474;51.460;7.150;2023-09-19T19:50:25;18.70;65.60
2929;DHT22;1474;51.460;7.150;2023-09-19T19:52:54;18.60;65.60
2929;DHT22;1474;51.460;7.150;2023-09-19T19:55:23;18.70;65.70
2929;DHT22;1474;51.460;7.150;2023-09-19T19:57:53;18.70;65.60
2929;DHT22;1474;51.460;7.150;2023-09-19T20:00:24;18.60;65.70
2929;DHT22;1474;51.460;7.150;2023-09-19T20:02:51;18.70;66.00
2929;DHT22;1474;51.460;7.150;2023-09-19T20:05:18;18.60;65.80
2929;DHT22;1474;51.460;7.150;2023-09-19T20:07:52;18.70;65.70
2929;DHT22;1474;51.460;7.150;2023-09-19T20:10:19;18.70;65.80
2929;DHT22;1474;51.460;7.150;2023-09-19T20:12:51;18.70;66.00
2929;DHT22;1474;51.460;7.150;2023-09-19T20:15:18;18.70;65.50
2929;DHT22;1474;51.460;7.150;2023-09-19T20:17:45;18.60;65.90
2929;DHT22;1474;51.460;7.150;2023-09-19T20:20:12;18.70;65.90
2929;DHT22;1474;51.460;7.150;2023-09-19T20:22:43;18.60;65.80
2929;DHT22;1474;51.460;7.150;2023-09-19T20:25:15;18.60;66.10
2929;DHT22;1474;51.460;7.150;2023-09-19T20:27:44;18.70;66.20
2929;DHT22;1474;51.460;7.150;2023-09-19T20:30:17;18.60;66.00
2929;DHT22;1474;51.460;7.150;2023-09-19T20:32:48;18.70;66.30
2929;DHT22;1474;51.460;7.150;2023-09-19T20:35:23;18.60;66.30
2929;DHT22;1474;51.460;7.150;2023-09-19T20:37:50;18.70;66.30
2929;DHT22;1474;51.460;7.150;2023-09-19T20:40:26;18.70;66.20
2929;DHT22;1474;51.460;7.150;2023-09-19T20:42:55;18.60;66.40
2929;DHT22;1474;51.460;7.150;2023-09-19T20:45:25;18.60;66.40
2929;DHT22;1474;51.460;7.150;2023-09-19T20:47:55;18.70;66.50
2929;DHT22;1474;51.460;7.150;2023-09-19T20:50:26;18.60;66.40
